Time;durP1;ratioP1;P1;durP2;ratioP2;P2;SDS_P1;SDS_P2;PMS_P1;PMS_P2;Temp;Humidity;BMP_temperature;BMP_pressure;BME280_temperature;BME280_humidity;BME280_pressure;Samples;Min_cycle;Max_cycle;Signal;HPM_P1;HPM_P2
2023/11/17 00:00:53;;;;;;;14.50;8.80;;;;;;;6.26;56.00;100770.83;108120;1286;21999;-71
2023/11/17 00:03:18;;;;;;;14.90;8.60;;;;;;;6.25;56.17;100767.85;108062;1284;21989;-61
2023/11/17 00:05:44;;;;;;;15.20;9.60;;;;;;;6.24;56.19;100762.98;108173;1286;21998;-71
2023/11/17 00:08:10;;;;;;;13.80;7.70;;;;;;;6.21;56.31;100761.88;108159;1277;22736;-61
2023/11/17 00:10:38;;;;;;;12.50;7.90;;;;;;;6.15;56.21;100763.90;108093;1286;21999;-61
2023/11/17 00:13:04;;;;;;;13.50;8.80;;;;;;;6.02;56.62;100766.52;108245;1286;22006;-72
2023/11/17 00:15:30;;;;;;;12.90;8.40;;;;;;;5.93;56.56;100766.39;108207;1285;22039;-60
2023/11/17 00:17:55;;;;;;;12.90;8.50;;;;;;;5.83;56.74;100763.65;108199;1282;22031;-71
2023/11/17 00:20:22;;;;;;;17.80;8.60;;;;;;;5.80;56.60;100762.74;108233;1285;22028;-71
2023/11/17 00:22:48;;;;;;;12.70;8.30;;;;;;;5.80;56.64;100764.31;108149;1284;23722;-71
2023/11/17 00:25:17;;;;;;;13.10;8.30;;;;;;;5.85;56.65;100770.11;108203;1286;22040;-63
2023/11/17 00:27:43;;;;;;;14.30;8.40;;;;;;;5.91;56.63;100780.13;108300;1277;22091;-60
2023/11/17 00:30:13;;;;;;;13.70;9.00;;;;;;;5.92;56.40;100784.14;108174;1286;21996;-66
2023/11/17 00:32:39;;;;;;;14.20;8.60;;;;;;;5.91;56.41;100792.66;108140;1284;22028;-71
2023/11/17 00:35:06;;;;;;;15.30;8.20;;;;;;;5.90;56.09;100797.70;108182;1278;21995;-71
2023/11/17 00:37:32;;;;;;;14.30;8.40;;;;;;;5.88;56.36;100801.34;108220;1274;21989;-71
2023/11/17 00:39:58;;;;;;;13.20;8.70;;;;;;;5.84;56.56;100803.38;108140;1286;21991;-71
2023/11/17 00:42:23;;;;;;;16.20;9.50;;;;;;;5.79;56.67;100802.95;108077;1280;23712;-71
2023/11/17 00:44:49;;;;;;;13.40;9.10;;;;;;;5.75;56.55;100811.59;108166;1286;21989;-61
2023/11/17 00:47:15;;;;;;;14.70;8.80;;;;;;;5.74;56.44;100814.89;108128;1286;21989;-60
2023/11/17 00:49:42;;;;;;;14.20;9.40;;;;;;;5.73;56.65;100816.29;108130;1286;22019;-60
2023/11/17 00:52:09;;;;;;;13.00;8.70;;;;;;;5.73;56.86;100813.49;108268;1277;21990;-61
2023/11/17 00:54:42;;;;;;;17.40;10.10;;;;;;;5.72;56.83;100811.57;108215;1286;23084;-60
2023/11/17 00:57:12;;;;;;;15.40;9.00;;;;;;;5.73;56.66;100808.98;108169;1286;22029;-60
2023/11/17 00:59:40;;;;;;;17.20;10.20;;;;;;;5.74;56.79;100809.67;108085;1286;21993;-61
2023/11/17 01:02:06;;;;;;;15.80;9.10;;;;;;;5.78;56.79;100807.29;108131;1280;22034;-60
2023/11/17 01:04:32;;;;;;;16.30;9.60;;;;;;;5.84;56.73;100803.20;108105;1286;21988;-72
2023/11/17 01:06:58;;;;;;;14.80;9.10;;;;;;;5.90;56.61;100799.45;108204;1277;22032;-62
2023/11/17 01:09:25;;;;;;;15.10;8.90;;;;;;;5.93;56.40;100795.48;108180;1286;22026;-71
2023/11/17 01:11:51;;;;;;;14.90;9.00;;;;;;;5.96;56.37;100789.24;108282;1286;21980;-61
2023/11/17 01:14:17;;;;;;;15.10;8.90;;;;;;;5.99;56.44;100789.29;108227;1286;22051;-61
2023/11/17 01:16:44;;;;;;;15.10;10.00;;;;;;;6.01;56.49;100789.51;108085;1284;21986;-60
2023/11/17 01:19:09;;;;;;;14.60;9.40;;;;;;;6.00;56.21;100790.89;108116;1286;22041;-61
2023/11/17 01:21:35;;;;;;;13.40;8.90;;;;;;;5.95;55.90;100793.08;108071;1286;21995;-61
2023/11/17 01:24:01;;;;;;;14.30;9.50;;;;;;;5.88;55.76;100791.23;108081;1286;21988;-62
2023/11/17 01:26:27;;;;;;;15.20;9.00;;;;;;;5.80;55.92;100789.90;108168;1277;22007;-71
2023/11/17 01:28:53;;;;;;;15.00;9.10;;;;;;;5.70;55.97;100786.46;108161;1283;21986;-71
2023/11/17 01:31:21;;;;;;;16.90;10.00;;;;;;;5.65;56.02;100779.41;108263;1280;21990;-60
2023/11/17 01:33:50;;;;;;;16.60;9.00;;;;;;;5.67;55.97;100779.79;108242;1280;21984;-60
2023/11/17 01:36:17;;;;;;;16.80;9.70;;;;;;;5.62;55.96;100778.17;107554;1284;1002224;-72
2023/11/17 01:38:46;;;;;;;13.90;8.80;;;;;;;5.63;56.21;100777.65;108162;1284;21990;-61
2023/11/17 01:41:12;;;;;;;16.10;9.70;;;;;;;5.60;56.47;100767.69;107589;1286;1002370;-60
2023/11/17 01:43:39;;;;;;;15.70;10.30;;;;;;;5.58;56.45;100766.77;108166;1286;22034;-61
2023/11/17 01:46:05;;;;;;;15.10;9.70;;;;;;;5.53;56.41;100770.02;108166;1281;21989;-71
2023/11/17 01:48:33;;;;;;;14.30;9.20;;;;;;;5.47;56.23;100768.19;108170;1286;23675;-71
2023/11/17 01:51:00;;;;;;;15.30;9.50;;;;;;;5.44;56.32;100772.34;108147;1280;22099;-71
2023/11/17 01:53:27;;;;;;;17.70;10.40;;;;;;;5.44;56.26;100767.63;108204;1284;21996;-71
2023/11/17 01:55:53;;;;;;;16.90;10.20;;;;;;;5.45;55.98;100758.94;107353;1286;1003442;-71
2023/11/17 01:58:19;;;;;;;16.00;10.50;;;;;;;5.40;56.02;100756.79;108089;1287;21991;-71
2023/11/17 02:00:45;;;;;;;14.90;8.80;;;;;;;5.36;55.98;100754.45;108146;1287;22047;-60
2023/11/17 02:03:10;;;;;;;13.90;9.70;;;;;;;5.31;56.06;100745.16;108177;1274;21987;-71
2023/11/17 02:05:36;;;;;;;18.70;10.70;;;;;;;5.29;56.21;100743.75;108091;1286;21996;-65
2023/11/17 02:08:16;;;;;;;15.90;9.80;;;;;;;5.31;56.39;100736.27;108150;1276;21993;-60
2023/11/17 02:11:10;;;;;;;14.20;9.30;;;;;;;5.34;56.67;100732.15;108149;1287;21998;-72
2023/11/17 02:13:37;;;;;;;19.40;9.60;;;;;;;5.34;56.72;100728.86;108203;1276;21978;-72
2023/11/17 02:16:03;;;;;;;15.80;9.20;;;;;;;5.35;56.53;100725.20;108244;1287;23708;-61
2023/11/17 02:18:34;;;;;;;15.60;10.60;;;;;;;5.35;56.35;100722.95;108217;1284;21990;-72
2023/11/17 02:21:00;;;;;;;15.70;9.40;;;;;;;5.34;56.04;100720.66;108233;1287;23068;-71
2023/11/17 02:23:26;;;;;;;15.20;9.60;;;;;;;5.31;56.07;100716.43;107410;1287;1002526;-72
2023/11/17 02:26:24;;;;;;;13.10;8.00;;;;;;;5.29;56.38;100710.16;108308;1277;21986;-72
2023/11/17 02:28:58;;;;;;;13.60;8.30;;;;;;;5.29;56.00;100709.11;108105;1286;21989;-61
2023/11/17 02:31:32;;;;;;;16.60;9.30;;;;;;;5.30;56.03;100714.69;108154;1281;21989;-72
2023/11/17 02:34:08;;;;;;;14.30;9.10;;;;;;;5.24;55.32;100715.81;108148;1282;22456;-72
2023/11/17 02:36:34;;;;;;;15.80;9.20;;;;;;;5.11;55.14;100718.23;107282;1287;1003171;-71
2023/11/17 02:39:14;;;;;;;16.10;8.90;;;;;;;5.05;55.27;100717.63;108132;1281;21997;-72
2023/11/17 02:42:31;;;;;;;17.70;9.00;;;;;;;5.04;55.48;100723.17;108155;1277;22723;-72
2023/11/17 02:44:33;;;;;;;10.80;6.60;;;;;;;5.05;55.53;100730.48;108113;1287;22366;-72
2023/11/17 02:47:03;;;;;;;15.20;9.30;;;;;;;4.95;55.49;100737.30;108211;1287;22105;-72
2023/11/17 02:49:34;;;;;;;15.70;9.60;;;;;;;4.81;55.74;100736.38;108247;1277;21990;-61
2023/11/17 02:52:24;;;;;;;17.20;10.60;;;;;;;4.72;56.70;100741.77;108134;1287;21996;-61
2023/11/17 02:54:50;;;;;;;14.60;9.70;;;;;;;4.70;56.75;100745.91;108103;1276;21993;-72
2023/11/17 02:57:19;;;;;;;13.20;9.10;;;;;;;4.67;56.35;100744.47;107371;1287;1002490;-60
2023/11/17 02:59:45;;;;;;;16.90;9.30;;;;;;;4.67;56.62;100742.19;108177;1284;22130;-61
2023/11/17 03:02:15;;;;;;;14.60;9.20;;;;;;;4.76;56.53;100743.05;108201;1283;22001;-72
2023/11/17 03:04:43;;;;;;;15.00;8.70;;;;;;;4.86;56.50;100742.52;108152;1287;21992;-73
2023/11/17 03:07:09;;;;;;;16.20;9.50;;;;;;;4.91;56.68;100745.74;108146;1287;21998;-72
2023/11/17 03:09:35;;;;;;;14.40;9.80;;;;;;;4.98;56.32;100748.45;108198;1277;22000;-61
2023/11/17 03:12:00;;;;;;;18.20;10.70;;;;;;;5.01;56.19;100745.57;108124;1287;22021;-60
2023/11/17 03:14:26;;;;;;;12.10;8.90;;;;;;;4.98;55.85;100742.57;108124;1287;22041;-72
2023/11/17 03:16:56;;;;;;;14.00;8.60;;;;;;;4.92;56.02;100731.67;107354;1277;1002615;-62
2023/11/17 03:19:23;;;;;;;16.30;9.20;;;;;;;4.85;55.70;100723.73;108179;1281;21994;-62
2023/11/17 03:21:49;;;;;;;16.40;10.00;;;;;;;4.78;55.77;100717.88;107481;1280;1014857;-61
2023/11/17 03:24:20;;;;;;;16.00;9.20;;;;;;;4.75;56.01;100716.80;107389;1287;1002511;-73
2023/11/17 03:26:47;;;;;;;17.30;9.20;;;;;;;4.73;56.20;100721.27;108194;1284;21991;-73
2023/11/17 03:29:14;;;;;;;15.00;10.00;;;;;;;4.73;56.23;100722.33;108194;1283;22078;-73
2023/11/17 03:31:48;;;;;;;18.10;9.80;;;;;;;4.75;56.04;100723.91;108237;1287;22104;-73
2023/11/17 03:34:23;;;;;;;17.40;9.60;;;;;;;4.76;56.43;100722.36;108135;1285;21991;-72
2023/11/17 03:36:56;;;;;;;14.40;9.90;;;;;;;4.76;56.30;100720.27;108192;1287;22038;-73
2023/11/17 03:39:28;;;;;;;15.10;9.70;;;;;;;4.76;56.29;100715.92;108195;1287;22117;-73
2023/11/17 03:41:54;;;;;;;18.90;10.10;;;;;;;4.76;56.28;100718.20;107892;1287;24329;-73
2023/11/17 03:44:27;;;;;;;15.90;9.70;;;;;;;4.79;56.46;100712.86;108115;1284;21994;-63
2023/11/17 03:46:59;;;;;;;18.70;10.30;;;;;;;4.84;56.48;100703.55;107383;1287;1003514;-60
2023/11/17 03:49:28;;;;;;;15.40;9.50;;;;;;;4.91;56.34;100693.74;108146;1277;21997;-60
2023/11/17 03:51:54;;;;;;;15.90;8.60;;;;;;;4.91;56.76;100690.96;108175;1286;21996;-73
2023/11/17 03:54:21;;;;;;;16.10;9.90;;;;;;;4.89;56.48;100689.02;107387;1281;1002325;-60
2023/11/17 03:56:53;;;;;;;16.10;9.20;;;;;;;4.86;56.45;100678.36;108195;1283;21996;-60
2023/11/17 03:59:22;;;;;;;14.60;9.30;;;;;;;4.85;56.50;100668.97;108168;1283;21995;-60
2023/11/17 04:01:48;;;;;;;15.70;9.50;;;;;;;4.83;56.36;100663.02;108214;1280;22001;-73
2023/11/17 04:04:17;;;;;;;16.40;9.10;;;;;;;4.81;56.22;100666.65;107337;1284;1002379;-73
2023/11/17 04:06:44;;;;;;;17.50;10.10;;;;;;;4.76;56.05;100678.22;108124;1286;23870;-72
2023/11/17 04:09:15;;;;;;;18.10;9.80;;;;;;;4.68;55.78;100681.90;108104;1280;22018;-60
2023/11/17 04:11:42;;;;;;;13.00;8.20;;;;;;;4.65;56.01;100678.36;108125;1277;21989;-73
2023/11/17 04:14:08;;;;;;;16.90;10.90;;;;;;;4.68;56.26;100678.23;108126;1286;22569;-60
2023/11/17 04:16:34;;;;;;;17.20;8.90;;;;;;;4.76;55.86;100679.06;108134;1286;21994;-60
2023/11/17 04:19:00;;;;;;;17.30;8.80;;;;;;;4.79;55.60;100680.70;108115;1286;22001;-62
2023/11/17 04:21:26;;;;;;;13.40;8.30;;;;;;;4.83;55.93;100679.89;108101;1286;21981;-73
2023/11/17 04:23:52;;;;;;;12.10;8.10;;;;;;;4.84;56.22;100686.52;108041;1280;22210;-61
2023/11/17 04:26:19;;;;;;;30.90;10.10;;;;;;;4.90;56.80;100684.85;108140;1286;21986;-61
2023/11/17 04:28:47;;;;;;;13.20;8.50;;;;;;;4.97;56.64;100679.77;108067;1280;22029;-72
2023/11/17 04:31:13;;;;;;;14.50;8.50;;;;;;;5.03;56.73;100674.45;108227;1280;24406;-72
2023/11/17 04:33:39;;;;;;;13.10;8.20;;;;;;;5.07;56.26;100669.29;108276;1280;21997;-61
2023/11/17 04:36:05;;;;;;;14.40;8.10;;;;;;;5.09;55.83;100667.92;108181;1285;21989;-60
2023/11/17 04:38:31;;;;;;;15.30;8.90;;;;;;;5.09;56.02;100666.17;108095;1278;21987;-61
2023/11/17 04:40:57;;;;;;;13.60;8.40;;;;;;;5.05;56.00;100663.88;108110;1286;22098;-72
2023/11/17 04:43:22;;;;;;;13.10;8.10;;;;;;;5.05;55.88;100668.05;108084;1283;23725;-71
2023/11/17 04:45:49;;;;;;;13.80;8.40;;;;;;;5.04;55.95;100675.17;108111;1280;22163;-70
2023/11/17 04:48:16;;;;;;;14.50;7.60;;;;;;;4.98;55.91;100678.03;107523;1286;1002650;-60
2023/11/17 04:50:42;;;;;;;17.20;8.50;;;;;;;4.92;55.93;100681.25;107596;1281;1002792;-61
2023/11/17 04:53:08;;;;;;;15.30;7.90;;;;;;;4.94;56.21;100688.05;108140;1287;22442;-73
2023/11/17 04:55:34;;;;;;;16.60;8.50;;;;;;;4.99;56.36;100693.17;107386;1281;1003033;-60
2023/11/17 04:58:00;;;;;;;15.80;8.20;;;;;;;5.03;56.52;100696.02;107387;1284;1002243;-72
2023/11/17 05:00:26;;;;;;;14.70;8.20;;;;;;;5.09;56.41;100696.63;108165;1281;22039;-72
2023/11/17 05:02:53;;;;;;;21.10;8.00;;;;;;;5.17;56.78;100705.10;107375;1278;1002421;-72
2023/11/17 05:05:20;;;;;;;20.30;8.90;;;;;;;5.28;56.92;100704.23;108104;1286;23056;-72
2023/11/17 05:07:46;;;;;;;18.20;8.60;;;;;;;5.35;56.95;100704.48;108178;1280;22038;-72
2023/11/17 05:10:14;;;;;;;15.00;8.10;;;;;;;5.41;56.77;100708.40;107423;1286;1002514;-70
2023/11/17 05:12:42;;;;;;;16.20;9.10;;;;;;;5.44;56.39;100711.93;108272;1286;21988;-60
2023/11/17 05:15:12;;;;;;;17.50;9.60;;;;;;;5.45;56.64;100707.09;108142;1280;23445;-63
2023/11/17 05:17:49;;;;;;;17.70;10.00;;;;;;;5.46;56.59;100706.40;108231;1276;21989;-60
2023/11/17 05:20:16;;;;;;;15.00;9.90;;;;;;;5.44;56.09;100710.02;108145;1286;21986;-70
2023/11/17 05:22:43;;;;;;;15.20;9.40;;;;;;;5.37;55.77;100707.64;108204;1286;23742;-61
2023/11/17 05:25:08;;;;;;;16.70;9.30;;;;;;;5.31;55.44;100711.58;108170;1285;24424;-71
2023/11/17 05:27:34;;;;;;;16.20;9.80;;;;;;;5.26;55.34;100719.67;108097;1280;22033;-71
2023/11/17 05:30:02;;;;;;;13.70;9.00;;;;;;;5.25;55.59;100722.09;108278;1286;22019;-72
2023/11/17 05:32:29;;;;;;;13.40;8.20;;;;;;;5.25;55.66;100722.27;108196;1286;21991;-61
2023/11/17 05:34:55;;;;;;;17.80;9.70;;;;;;;5.22;55.65;100718.92;108117;1278;21991;-60
2023/11/17 05:37:20;;;;;;;16.90;10.70;;;;;;;5.21;55.88;100722.73;108120;1286;22003;-60
2023/11/17 05:39:46;;;;;;;15.80;10.10;;;;;;;5.21;55.76;100727.63;108123;1280;21987;-61
2023/11/17 05:42:12;;;;;;;15.30;9.40;;;;;;;5.21;55.91;100729.70;108079;1280;21984;-60
2023/11/17 05:44:38;;;;;;;18.80;11.00;;;;;;;5.21;55.72;100725.34;108093;1286;22037;-60
2023/11/17 05:47:03;;;;;;;19.90;10.20;;;;;;;5.25;56.31;100720.18;108291;1281;22035;-61
2023/11/17 05:49:29;;;;;;;16.70;10.10;;;;;;;5.28;56.30;100720.92;107552;1281;1003069;-61
2023/11/17 05:51:55;;;;;;;16.70;9.50;;;;;;;5.29;56.20;100717.80;108292;1280;21991;-60
2023/11/17 05:54:21;;;;;;;13.80;9.10;;;;;;;5.30;56.48;100718.17;107431;1286;1002526;-60
2023/11/17 05:56:47;;;;;;;15.50;9.10;;;;;;;5.34;56.66;100716.67;108157;1280;22032;-60
2023/11/17 05:59:13;;;;;;;14.50;8.80;;;;;;;5.43;56.85;100715.58;107461;1280;1003049;-60
2023/11/17 06:01:41;;;;;;;14.80;8.70;;;;;;;5.52;56.73;100715.35;108078;1284;22003;-68
2023/11/17 06:04:11;;;;;;;14.80;9.10;;;;;;;5.60;57.05;100724.16;108112;1283;21990;-69
2023/11/17 06:06:39;;;;;;;;;;;;;;;5.69;57.17;100732.30;108133;1283;21970;-68
2023/11/17 06:09:06;;;;;;;14.20;8.40;;;;;;;5.78;57.48;100730.16;108094;1286;22293;-60
2023/11/17 06:11:32;;;;;;;14.30;8.30;;;;;;;5.88;57.51;100730.27;108130;1283;21998;-67
2023/11/17 06:13:58;;;;;;;14.10;7.60;;;;;;;5.98;57.79;100729.02;108084;1275;22254;-67
2023/11/17 06:16:23;;;;;;;14.40;8.40;;;;;;;6.09;57.71;100726.20;108136;1286;22008;-67
2023/11/17 06:18:50;;;;;;;13.20;8.00;;;;;;;6.19;58.07;100723.35;107358;1286;1002560;-61
2023/11/17 06:21:16;;;;;;;15.90;7.10;;;;;;;6.30;58.17;100719.48;108215;1286;21989;-65
2023/11/17 06:23:42;;;;;;;11.30;7.10;;;;;;;6.42;58.30;100721.16;107445;1286;1002434;-66
2023/11/17 06:26:08;;;;;;;13.60;7.50;;;;;;;6.54;58.50;100723.38;108201;1283;22031;-61
2023/11/17 06:28:34;;;;;;;10.40;6.90;;;;;;;6.65;58.44;100718.59;108055;1286;21989;-66
2023/11/17 06:31:00;;;;;;;13.40;7.00;;;;;;;6.78;58.70;100719.05;108173;1281;21986;-65
2023/11/17 06:33:27;;;;;;;11.30;7.20;;;;;;;6.97;58.77;100729.16;108157;1286;22021;-62
2023/11/17 06:35:53;;;;;;;10.90;6.50;;;;;;;7.06;58.70;100734.64;108102;1286;21993;-65
2023/11/17 06:38:18;;;;;;;14.50;7.10;;;;;;;7.13;58.63;100741.31;108093;1286;21965;-65
2023/11/17 06:40:45;;;;;;;11.60;6.90;;;;;;;7.21;58.51;100743.30;108094;1286;21991;-65
2023/11/17 06:43:10;;;;;;;12.00;7.20;;;;;;;7.28;58.08;100741.96;108074;1286;22053;-65
2023/11/17 06:45:36;;;;;;;8.40;5.70;;;;;;;7.33;58.09;100733.43;108075;1274;21993;-62
2023/11/17 06:48:03;;;;;;;10.50;6.40;;;;;;;7.41;58.34;100731.73;108085;1286;23050;-61
2023/11/17 06:50:28;;;;;;;10.80;6.90;;;;;;;7.44;57.86;100728.45;108144;1280;22169;-62
2023/11/17 06:52:55;;;;;;;12.70;8.20;;;;;;;7.42;57.53;100730.00;108136;1280;21993;-64
2023/11/17 06:55:21;;;;;;;13.20;8.10;;;;;;;7.41;57.71;100731.91;108332;1278;23627;-61
2023/11/17 06:57:47;;;;;;;14.70;8.40;;;;;;;7.43;57.95;100731.76;108290;1286;21992;-66
2023/11/17 07:00:13;;;;;;;12.90;8.50;;;;;;;7.46;57.68;100739.29;108326;1286;21987;-65
2023/11/17 07:02:43;;;;;;;12.20;8.00;;;;;;;7.46;57.41;100747.33;108247;1286;21996;-63
2023/11/17 07:05:10;;;;;;;14.50;8.30;;;;;;;7.47;57.37;100745.40;108297;1286;23757;-66
2023/11/17 07:07:37;;;;;;;11.00;7.60;;;;;;;7.51;57.54;100738.44;108189;1286;21992;-66
2023/11/17 07:10:07;;;;;;;12.90;7.60;;;;;;;7.58;57.82;100741.09;108390;1286;21992;-66
2023/11/17 07:12:35;;;;;;;11.80;8.10;;;;;;;7.68;58.13;100739.75;108252;1286;21987;-65
2023/11/17 07:15:02;;;;;;;12.70;8.10;;;;;;;7.83;58.86;100737.21;108241;1276;22115;-65
2023/11/17 07:17:28;;;;;;;13.70;8.00;;;;;;;7.99;58.74;100737.79;108262;1286;21986;-66
2023/11/17 07:19:54;;;;;;;25.80;15.00;;;;;;;8.03;57.43;100736.77;108215;1286;22009;-65
2023/11/17 07:22:20;;;;;;;43.00;22.50;;;;;;;8.05;57.25;100738.87;108143;1286;21989;-66
2023/11/17 07:24:46;;;;;;;104.00;47.70;;;;;;;8.12;57.86;100743.98;108181;1286;21996;-61
2023/11/17 07:27:11;;;;;;;29.60;17.40;;;;;;;8.22;58.06;100745.05;108132;1280;21986;-65
2023/11/17 07:29:37;;;;;;;26.30;14.40;;;;;;;8.30;57.71;100742.27;108103;1277;21991;-61
2023/11/17 07:32:04;;;;;;;24.60;14.30;;;;;;;8.38;58.13;100738.10;108110;1286;23783;-62
2023/11/17 07:34:29;;;;;;;37.70;17.60;;;;;;;8.49;57.89;100741.11;108152;1286;21992;-64
2023/11/17 07:36:55;;;;;;;44.30;23.80;;;;;;;8.55;57.73;100738.70;108083;1283;23522;-60
2023/11/17 07:39:23;;;;;;;23.80;13.50;;;;;;;8.62;58.18;100736.27;108121;1284;22479;-60
2023/11/17 07:41:49;;;;;;;35.00;19.70;;;;;;;8.71;58.46;100730.15;107475;1287;1003114;-61
2023/11/17 07:44:15;;;;;;;25.20;14.30;;;;;;;8.84;58.94;100728.93;108168;1277;22004;-61
2023/11/17 07:46:40;;;;;;;18.50;11.30;;;;;;;8.99;59.45;100725.62;108165;1280;21991;-61
2023/11/17 07:49:06;;;;;;;23.90;13.80;;;;;;;9.17;59.65;100724.38;108156;1281;22049;-64
2023/11/17 07:51:35;;;;;;;15.50;9.90;;;;;;;9.34;59.76;100716.13;105844;1287;1003543;-60
2023/11/17 07:54:01;;;;;;;21.00;12.60;;;;;;;9.50;60.00;100707.85;108142;1287;21992;-61
2023/11/17 07:56:27;;;;;;;15.10;9.10;;;;;;;9.66;60.16;100699.94;108120;1287;22030;-60
2023/11/17 07:58:53;;;;;;;18.80;11.00;;;;;;;9.77;59.63;100706.02;107360;1287;1002346;-66
2023/11/17 08:01:20;;;;;;;13.30;8.80;;;;;;;9.88;59.16;100706.34;108224;1280;23793;-64
2023/11/17 08:03:45;;;;;;;30.10;13.50;;;;;;;9.95;59.11;100702.80;108276;1277;22005;-61
2023/11/17 08:06:11;;;;;;;62.90;16.50;;;;;;;10.02;59.26;100700.83;108218;1287;22008;-60
2023/11/17 08:08:40;;;;;;;95.80;23.60;;;;;;;10.04;59.41;100696.44;108208;1287;21997;-66
2023/11/17 08:11:08;;;;;;;96.70;31.70;;;;;;;10.12;60.12;100699.73;108193;1277;21999;-65
2023/11/17 08:13:33;;;;;;;19.30;9.30;;;;;;;10.22;60.04;100703.71;108174;1280;21956;-60
2023/11/17 08:16:00;;;;;;;15.60;7.30;;;;;;;10.31;60.01;100705.23;108111;1286;21988;-60
2023/11/17 08:18:26;;;;;;;15.80;7.30;;;;;;;10.40;60.05;100699.94;108129;1280;22032;-66
2023/11/17 08:20:52;;;;;;;329.00;229.50;;;;;;;10.51;60.02;100697.25;108124;1275;21977;-66
2023/11/17 08:23:19;;;;;;;65.90;43.80;;;;;;;10.60;60.27;100696.66;108123;1287;21994;-60
2023/11/17 08:25:45;;;;;;;41.20;18.00;;;;;;;10.70;60.53;100697.11;108158;1280;22025;-60
2023/11/17 08:28:11;;;;;;;26.30;14.90;;;;;;;10.84;61.11;100709.63;108131;1274;23847;-61
2023/11/17 08:30:37;;;;;;;37.30;14.20;;;;;;;11.01;61.58;100714.93;108135;1284;21983;-65
2023/11/17 08:33:07;;;;;;;14.00;8.40;;;;;;;11.23;62.23;100707.52;108069;1273;21994;-62
2023/11/17 08:35:32;;;;;;;10.50;6.90;;;;;;;11.49;62.94;100704.98;108163;1286;23046;-60
2023/11/17 08:37:58;;;;;;;10.70;6.60;;;;;;;11.79;62.97;100704.81;108090;1286;21989;-67
2023/11/17 08:40:24;;;;;;;22.70;14.00;;;;;;;12.05;63.11;100695.55;107391;1284;1002989;-67
2023/11/17 08:42:50;;;;;;;14.70;8.60;;;;;;;12.32;63.16;100686.74;108070;1276;21990;-67
2023/11/17 08:45:16;;;;;;;12.70;7.90;;;;;;;12.54;62.38;100676.04;108309;1286;21987;-60
2023/11/17 08:47:46;;;;;;;12.40;8.00;;;;;;;12.71;61.77;100677.86;108191;1283;22027;-62
2023/11/17 08:50:12;;;;;;;44.90;17.30;;;;;;;12.87;61.62;100671.80;108159;1281;22029;-60
2023/11/17 08:52:42;;;;;;;87.00;29.40;;;;;;;13.03;61.78;100665.88;108105;1286;21997;-67
2023/11/17 08:55:09;;;;;;;116.80;35.60;;;;;;;13.23;62.35;100653.18;108079;1286;22101;-60
2023/11/17 08:57:35;;;;;;;59.70;21.30;;;;;;;13.44;62.99;100650.34;108091;1286;22043;-67
2023/11/17 09:00:11;;;;;;;127.20;39.30;;;;;;;13.65;62.90;100644.11;108124;1284;21985;-61
2023/11/17 09:02:46;;;;;;;67.40;26.70;;;;;;;13.87;63.04;100636.59;108191;1287;21989;-67
2023/11/17 09:05:13;;;;;;;32.20;15.40;;;;;;;14.09;62.60;100633.27;108242;1280;21993;-67
2023/11/17 09:07:40;;;;;;;35.20;15.50;;;;;;;14.27;62.48;100630.39;108163;1280;23146;-67
2023/11/17 09:10:09;;;;;;;23.80;11.90;;;;;;;14.45;62.55;100628.37;108142;1287;22001;-60
2023/11/17 09:12:36;;;;;;;15.70;9.00;;;;;;;14.60;62.18;100627.66;108172;1287;21992;-68
2023/11/17 09:15:03;;;;;;;14.50;8.90;;;;;;;14.72;61.63;100629.14;108197;1287;22663;-60
2023/11/17 09:17:31;;;;;;;28.20;8.20;;;;;;;14.82;61.27;100628.20;108131;1287;21991;-67
2023/11/17 09:19:57;;;;;;;20.10;8.10;;;;;;;14.93;61.40;100624.92;108168;1286;21987;-60
2023/11/17 09:22:23;;;;;;;344.70;34.00;;;;;;;15.05;61.23;100616.98;108106;1287;21995;-60
2023/11/17 09:24:50;;;;;;;27.20;9.90;;;;;;;15.21;61.84;100617.45;108169;1287;22001;-67
2023/11/17 09:27:16;;;;;;;15.60;7.70;;;;;;;15.41;61.97;100613.17;108173;1287;21997;-68
2023/11/17 09:29:41;;;;;;;14.10;6.80;;;;;;;15.60;61.65;100609.27;108194;1281;21986;-60
2023/11/17 09:32:07;;;;;;;54.10;9.10;;;;;;;15.74;60.90;100608.83;108128;1287;21986;-68
2023/11/17 09:34:33;;;;;;;19.10;6.70;;;;;;;15.84;60.09;100606.61;108126;1287;22004;-60
2023/11/17 09:37:02;;;;;;;47.60;10.10;;;;;;;15.89;59.75;100602.73;108129;1287;21992;-61
2023/11/17 09:39:27;;;;;;;91.40;10.40;;;;;;;15.98;60.37;100598.59;108155;1280;21992;-67
2023/11/17 09:41:53;;;;;;;90.70;9.50;;;;;;;16.09;59.19;100596.52;108233;1283;22464;-67
2023/11/17 09:44:19;;;;;;;11.50;4.80;;;;;;;16.15;58.67;100588.86;108108;1283;21997;-60
2023/11/17 09:46:51;;;;;;;10.80;4.80;;;;;;;16.23;58.83;100584.54;108107;1287;22004;-63
2023/11/17 09:49:17;;;;;;;9.60;5.50;;;;;;;16.30;58.89;100574.56;108142;1285;21993;-67
2023/11/17 09:51:43;;;;;;;10.80;5.60;;;;;;;16.39;59.05;100571.26;108164;1287;21992;-68
2023/11/17 09:54:13;;;;;;;10.30;4.90;;;;;;;16.46;58.66;100563.40;108092;1287;21985;-69
2023/11/17 09:56:42;;;;;;;43.60;7.80;;;;;;;16.53;58.54;100558.59;108124;1287;21973;-68
2023/11/17 09:59:08;;;;;;;29.80;6.60;;;;;;;16.58;57.94;100557.14;108176;1287;21996;-69
2023/11/17 10:01:34;;;;;;;40.20;7.40;;;;;;;16.62;57.69;100555.96;108116;1286;21985;-61
2023/11/17 10:03:59;;;;;;;20.30;6.10;;;;;;;16.66;58.23;100554.06;108136;1277;21996;-69
2023/11/17 10:06:26;;;;;;;11.50;4.60;;;;;;;16.68;56.52;100554.70;108102;1283;21986;-61
2023/11/17 10:08:52;;;;;;;9.60;4.60;;;;;;;16.64;56.44;100554.29;108080;1277;21988;-62
2023/11/17 10:11:18;;;;;;;13.20;5.10;;;;;;;16.58;55.91;100552.19;108129;1277;22030;-69
2023/11/17 10:13:45;;;;;;;15.80;6.70;;;;;;;16.56;56.47;100550.52;108095;1283;22024;-62
2023/11/17 10:16:11;;;;;;;9.80;5.80;;;;;;;16.62;57.05;100550.82;108118;1274;22187;-69
2023/11/17 10:18:37;;;;;;;9.00;5.40;;;;;;;16.72;56.72;100552.42;108063;1284;21961;-61
2023/11/17 10:21:04;;;;;;;13.80;6.60;;;;;;;16.75;55.52;100548.41;108127;1282;22102;-62
2023/11/17 10:23:31;;;;;;;16.10;6.40;;;;;;;16.81;56.47;100538.83;108131;1287;22771;-69
2023/11/17 10:25:57;;;;;;;8.00;5.50;;;;;;;16.93;56.94;100534.17;107959;1287;21989;-61
2023/11/17 10:28:27;;;;;;;11.10;5.90;;;;;;;17.06;56.48;100536.91;108103;1276;21996;-61
2023/11/17 10:30:55;;;;;;;9.70;4.80;;;;;;;17.18;56.24;100538.06;108110;1287;23513;-61
2023/11/17 10:33:33;;;;;;;11.60;4.60;;;;;;;17.28;56.02;100534.14;108151;1287;21993;-69
2023/11/17 10:36:12;;;;;;;10.00;4.60;;;;;;;17.39;55.73;100533.38;108102;1287;24091;-69
2023/11/17 10:38:45;;;;;;;9.70;5.10;;;;;;;17.50;55.46;100526.19;108107;1287;21984;-61
2023/11/17 10:41:17;;;;;;;8.10;4.50;;;;;;;17.57;55.01;100523.80;108158;1287;22070;-69
2023/11/17 10:43:49;;;;;;;9.40;4.20;;;;;;;17.63;54.86;100516.48;108196;1281;22044;-61
2023/11/17 10:46:21;;;;;;;7.60;4.20;;;;;;;17.70;54.25;100512.13;108132;1283;186605;-68
2023/11/17 10:48:48;;;;;;;7.90;4.40;;;;;;;17.71;53.68;100509.23;108123;1283;23164;-68
2023/11/17 10:51:17;;;;;;;6.30;3.80;;;;;;;17.72;53.42;100502.64;108048;1281;21991;-69
2023/11/17 10:54:00;;;;;;;8.10;3.90;;;;;;;17.73;53.29;100503.30;108069;1279;21998;-61
2023/11/17 10:56:27;;;;;;;6.70;4.20;;;;;;;17.74;53.28;100496.17;108031;1286;22767;-61
2023/11/17 10:58:54;;;;;;;7.80;4.30;;;;;;;17.75;53.06;100492.06;108064;1286;22025;-62
2023/11/17 11:01:20;;;;;;;6.60;3.90;;;;;;;17.76;53.02;100486.52;108093;1284;21990;-69
2023/11/17 11:03:46;;;;;;;5.20;3.80;;;;;;;17.77;52.82;100480.27;108070;1283;22093;-68
2023/11/17 11:06:13;;;;;;;6.20;4.20;;;;;;;17.78;52.52;100474.70;108128;1286;21989;-68
2023/11/17 11:08:58;;;;;;;5.70;3.80;;;;;;;17.74;52.17;100471.48;108143;1280;21954;-61
2023/11/17 11:11:23;;;;;;;6.60;3.90;;;;;;;17.69;52.17;100469.55;108086;1286;22128;-69
2023/11/17 11:14:02;;;;;;;6.90;4.40;;;;;;;17.66;52.16;100477.65;108116;1286;22764;-70